sensor_id;sensor_type;location;lat;lon;timestamp;P1;durP1;ratioP1;P2;durP2;ratioP2
18520;SDS011;9390;51.244;6.982;2023-01-10T00:00:38;31.65;;;8.90;;
18520;SDS011;9390;51.244;6.982;2023-01-10T00:03:10;26.17;;;9.10;;
18520;SDS011;9390;51.244;6.982;2023-01-10T00:05:42;24.05;;;9.27;;
18520;SDS011;9390;51.244;6.982;2023-01-10T00:08:14;25.30;;;8.88;;
18520;SDS011;9390;51.244;6.982;2023-01-10T00:10:47;29.50;;;8.93;;
18520;SDS011;9390;51.244;6.982;2023-01-10T00:13:19;31.23;;;7.93;;
18520;SDS011;9390;51.244;6.982;2023-01-10T00:15:53;23.58;;;8.10;;
18520;SDS011;9390;51.244;6.982;2023-01-10T00:18:25;22.17;;;7.18;;
18520;SDS011;9390;51.244;6.982;2023-01-10T00:20:57;25.75;;;7.05;;
18520;SDS011;9390;51.244;6.982;2023-01-10T00:23:30;23.85;;;8.15;;
18520;SDS011;9390;51.244;6.982;2023-01-10T00:26:03;22.08;;;7.80;;
18520;SDS011;9390;51.244;6.982;2023-01-10T00:31:08;23.20;;;7.15;;
18520;SDS011;9390;51.244;6.982;2023-01-10T00:33:41;28.15;;;7.15;;
18520;SDS011;9390;51.244;6.982;2023-01-10T00:36:12;26.10;;;7.55;;
18520;SDS011;9390;51.244;6.982;2023-01-10T00:38:43;24.40;;;7.43;;
18520;SDS011;9390;51.244;6.982;2023-01-10T00:41:16;30.25;;;6.82;;
18520;SDS011;9390;51.244;6.982;2023-01-10T00:44:02;25.15;;;6.90;;
18520;SDS011;9390;51.244;6.982;2023-01-10T00:46:35;23.70;;;6.72;;
18520;SDS011;9390;51.244;6.982;2023-01-10T00:49:07;23.05;;;6.50;;
18520;SDS011;9390;51.244;6.982;2023-01-10T00:54:12;18.30;;;6.45;;
18520;SDS011;9390;51.244;6.982;2023-01-10T00:56:46;22.08;;;6.88;;
18520;SDS011;9390;51.244;6.982;2023-01-10T00:59:17;18.42;;;6.40;;
18520;SDS011;9390;51.244;6.982;2023-01-10T01:01:48;19.77;;;5.82;;
18520;SDS011;9390;51.244;6.982;2023-01-10T01:04:20;22.05;;;6.30;;
18520;SDS011;9390;51.244;6.982;2023-01-10T01:06:51;20.27;;;6.47;;
18520;SDS011;9390;51.244;6.982;2023-01-10T01:09:23;29.38;;;6.32;;
18520;SDS011;9390;51.244;6.982;2023-01-10T01:11:55;19.52;;;6.10;;
18520;SDS011;9390;51.244;6.982;2023-01-10T01:14:27;21.45;;;6.07;;
18520;SDS011;9390;51.244;6.982;2023-01-10T01:16:58;23.08;;;6.40;;
18520;SDS011;9390;51.244;6.982;2023-01-10T01:19:29;24.88;;;5.85;;
18520;SDS011;9390;51.244;6.982;2023-01-10T01:22:01;28.63;;;6.80;;
18520;SDS011;9390;51.244;6.982;2023-01-10T01:24:32;19.55;;;5.43;;
18520;SDS011;9390;51.244;6.982;2023-01-10T01:27:05;15.35;;;5.07;;
18520;SDS011;9390;51.244;6.982;2023-01-10T01:29:36;18.58;;;5.00;;
18520;SDS011;9390;51.244;6.982;2023-01-10T01:32:08;26.45;;;5.80;;
18520;SDS011;9390;51.244;6.982;2023-01-10T01:34:39;19.48;;;5.13;;
18520;SDS011;9390;51.244;6.982;2023-01-10T01:37:11;15.65;;;5.28;;
18520;SDS011;9390;51.244;6.982;2023-01-10T01:39:42;13.65;;;4.93;;
18520;SDS011;9390;51.244;6.982;2023-01-10T01:42:21;20.30;;;4.97;;
18520;SDS011;9390;51.244;6.982;2023-01-10T01:45:08;17.20;;;4.78;;
18520;SDS011;9390;51.244;6.982;2023-01-10T01:48:08;22.08;;;5.28;;
18520;SDS011;9390;51.244;6.982;2023-01-10T01:50:45;12.48;;;4.60;;
18520;SDS011;9390;51.244;6.982;2023-01-10T01:53:20;25.40;;;5.35;;
18520;SDS011;9390;51.244;6.982;2023-01-10T01:55:55;19.75;;;4.55;;
18520;SDS011;9390;51.244;6.982;2023-01-10T01:58:31;24.67;;;5.75;;
18520;SDS011;9390;51.244;6.982;2023-01-10T02:01:07;19.10;;;5.13;;
18520;SDS011;9390;51.244;6.982;2023-01-10T02:03:38;24.27;;;5.75;;
18520;SDS011;9390;51.244;6.982;2023-01-10T02:06:11;17.23;;;4.70;;
18520;SDS011;9390;51.244;6.982;2023-01-10T02:08:43;27.98;;;4.97;;
18520;SDS011;9390;51.244;6.982;2023-01-10T02:11:19;22.73;;;4.45;;
18520;SDS011;9390;51.244;6.982;2023-01-10T02:13:52;24.90;;;5.25;;
18520;SDS011;9390;51.244;6.982;2023-01-10T02:16:24;15.77;;;4.85;;
18520;SDS011;9390;51.244;6.982;2023-01-10T02:18:56;27.85;;;4.50;;
18520;SDS011;9390;51.244;6.982;2023-01-10T02:21:32;27.80;;;5.05;;
18520;SDS011;9390;51.244;6.982;2023-01-10T02:27:16;18.83;;;4.15;;
18520;SDS011;9390;51.244;6.982;2023-01-10T02:30:09;25.83;;;4.35;;
18520;SDS011;9390;51.244;6.982;2023-01-10T02:32:53;24.33;;;3.92;;
18520;SDS011;9390;51.244;6.982;2023-01-10T02:35:31;16.85;;;3.95;;
18520;SDS011;9390;51.244;6.982;2023-01-10T02:38:09;18.73;;;3.92;;
18520;SDS011;9390;51.244;6.982;2023-01-10T02:40:48;25.25;;;4.53;;
18520;SDS011;9390;51.244;6.982;2023-01-10T02:43:22;13.82;;;4.07;;
18520;SDS011;9390;51.244;6.982;2023-01-10T02:45:58;23.58;;;4.97;;
18520;SDS011;9390;51.244;6.982;2023-01-10T02:48:33;30.35;;;5.95;;
18520;SDS011;9390;51.244;6.982;2023-01-10T02:51:07;26.30;;;3.95;;
18520;SDS011;9390;51.244;6.982;2023-01-10T02:53:45;14.00;;;4.05;;
18520;SDS011;9390;51.244;6.982;2023-01-10T02:56:23;20.98;;;4.85;;
18520;SDS011;9390;51.244;6.982;2023-01-10T02:59:34;23.77;;;4.22;;
18520;SDS011;9390;51.244;6.982;2023-01-10T03:02:15;19.40;;;3.90;;
18520;SDS011;9390;51.244;6.982;2023-01-10T03:04:57;23.77;;;4.60;;
18520;SDS011;9390;51.244;6.982;2023-01-10T03:07:35;18.17;;;4.05;;
18520;SDS011;9390;51.244;6.982;2023-01-10T03:10:09;17.73;;;4.07;;
18520;SDS011;9390;51.244;6.982;2023-01-10T03:12:46;23.55;;;4.72;;
18520;SDS011;9390;51.244;6.982;2023-01-10T03:15:19;17.02;;;4.07;;
18520;SDS011;9390;51.244;6.982;2023-01-10T03:17:53;16.08;;;4.30;;
18520;SDS011;9390;51.244;6.982;2023-01-10T03:20:28;24.80;;;3.85;;
18520;SDS011;9390;51.244;6.982;2023-01-10T03:23:03;25.83;;;4.38;;
18520;SDS011;9390;51.244;6.982;2023-01-10T03:25:37;18.55;;;3.92;;
18520;SDS011;9390;51.244;6.982;2023-01-10T03:30:43;19.70;;;3.70;;
18520;SDS011;9390;51.244;6.982;2023-01-10T03:33:16;20.63;;;4.05;;
18520;SDS011;9390;51.244;6.982;2023-01-10T03:35:54;23.20;;;4.88;;
18520;SDS011;9390;51.244;6.982;2023-01-10T03:38:34;17.15;;;3.75;;
18520;SDS011;9390;51.244;6.982;2023-01-10T03:41:12;20.77;;;4.28;;
18520;SDS011;9390;51.244;6.982;2023-01-10T03:43:47;20.73;;;3.95;;
18520;SDS011;9390;51.244;6.982;2023-01-10T03:46:41;13.75;;;3.40;;
18520;SDS011;9390;51.244;6.982;2023-01-10T03:49:14;17.38;;;4.78;;
18520;SDS011;9390;51.244;6.982;2023-01-10T03:51:48;18.30;;;4.00;;
18520;SDS011;9390;51.244;6.982;2023-01-10T03:56:51;12.73;;;3.08;;
18520;SDS011;9390;51.244;6.982;2023-01-10T03:59:26;18.27;;;3.60;;
18520;SDS011;9390;51.244;6.982;2023-01-10T04:01:58;16.73;;;3.60;;
18520;SDS011;9390;51.244;6.982;2023-01-10T04:04:29;19.25;;;3.88;;
18520;SDS011;9390;51.244;6.982;2023-01-10T04:07:02;15.73;;;3.63;;
18520;SDS011;9390;51.244;6.982;2023-01-10T04:09:34;18.10;;;3.50;;
18520;SDS011;9390;51.244;6.982;2023-01-10T04:12:05;23.15;;;3.97;;
18520;SDS011;9390;51.244;6.982;2023-01-10T04:14:37;21.35;;;3.78;;
18520;SDS011;9390;51.244;6.982;2023-01-10T04:17:09;12.70;;;4.05;;
18520;SDS011;9390;51.244;6.982;2023-01-10T04:19:41;17.17;;;3.17;;
18520;SDS011;9390;51.244;6.982;2023-01-10T04:22:14;20.45;;;3.90;;
18520;SDS011;9390;51.244;6.982;2023-01-10T04:24:45;17.13;;;3.10;;
18520;SDS011;9390;51.244;6.982;2023-01-10T04:27:20;19.65;;;3.67;;
18520;SDS011;9390;51.244;6.982;2023-01-10T04:29:51;21.95;;;3.38;;
18520;SDS011;9390;51.244;6.982;2023-01-10T04:32:23;21.55;;;3.50;;
18520;SDS011;9390;51.244;6.982;2023-01-10T04:34:54;21.90;;;3.80;;
18520;SDS011;9390;51.244;6.982;2023-01-10T04:37:27;17.73;;;4.10;;
18520;SDS011;9390;51.244;6.982;2023-01-10T04:39:59;24.75;;;4.00;;
18520;SDS011;9390;51.244;6.982;2023-01-10T04:42:31;20.60;;;3.47;;
18520;SDS011;9390;51.244;6.982;2023-01-10T04:45:03;23.50;;;3.33;;
18520;SDS011;9390;51.244;6.982;2023-01-10T04:47:35;24.52;;;3.83;;
18520;SDS011;9390;51.244;6.982;2023-01-10T04:50:07;16.38;;;3.58;;
18520;SDS011;9390;51.244;6.982;2023-01-10T04:52:41;19.42;;;3.63;;
18520;SDS011;9390;51.244;6.982;2023-01-10T04:55:12;25.42;;;4.88;;
18520;SDS011;9390;51.244;6.982;2023-01-10T04:57:44;26.25;;;3.55;;
18520;SDS011;9390;51.244;6.982;2023-01-10T05:00:16;19.23;;;3.45;;
18520;SDS011;9390;51.244;6.982;2023-01-10T05:02:48;20.48;;;4.20;;
18520;SDS011;9390;51.244;6.982;2023-01-10T05:05:19;15.95;;;3.55;;
18520;SDS011;9390;51.244;6.982;2023-01-10T05:07:52;24.23;;;3.87;;
18520;SDS011;9390;51.244;6.982;2023-01-10T05:10:24;22.85;;;4.20;;
18520;SDS011;9390;51.244;6.982;2023-01-10T05:12:55;18.73;;;3.50;;
18520;SDS011;9390;51.244;6.982;2023-01-10T05:15:27;25.35;;;4.00;;
18520;SDS011;9390;51.244;6.982;2023-01-10T05:17:58;17.23;;;3.72;;
18520;SDS011;9390;51.244;6.982;2023-01-10T05:20:30;12.18;;;3.60;;
18520;SDS011;9390;51.244;6.982;2023-01-10T05:23:03;19.90;;;3.90;;
18520;SDS011;9390;51.244;6.982;2023-01-10T05:25:34;22.33;;;4.38;;
18520;SDS011;9390;51.244;6.982;2023-01-10T05:28:05;24.20;;;4.65;;
18520;SDS011;9390;51.244;6.982;2023-01-10T05:30:37;23.92;;;4.63;;
18520;SDS011;9390;51.244;6.982;2023-01-10T05:33:08;25.00;;;4.35;;
18520;SDS011;9390;51.244;6.982;2023-01-10T05:35:39;18.17;;;3.35;;
18520;SDS011;9390;51.244;6.982;2023-01-10T05:38:12;25.50;;;4.18;;
18520;SDS011;9390;51.244;6.982;2023-01-10T05:40:43;29.17;;;4.97;;
18520;SDS011;9390;51.244;6.982;2023-01-10T05:43:15;21.65;;;3.35;;
18520;SDS011;9390;51.244;6.982;2023-01-10T05:45:46;24.70;;;4.30;;
18520;SDS011;9390;51.244;6.982;2023-01-10T05:48:18;17.65;;;4.25;;
18520;SDS011;9390;51.244;6.982;2023-01-10T05:50:50;22.77;;;3.90;;
18520;SDS011;9390;51.244;6.982;2023-01-10T05:53:23;25.58;;;4.05;;
18520;SDS011;9390;51.244;6.982;2023-01-10T05:55:55;31.33;;;3.92;;
18520;SDS011;9390;51.244;6.982;2023-01-10T05:58:27;27.45;;;4.07;;
18520;SDS011;9390;51.244;6.982;2023-01-10T06:00:59;21.73;;;3.83;;
18520;SDS011;9390;51.244;6.982;2023-01-10T06:03:31;26.50;;;5.18;;
18520;SDS011;9390;51.244;6.982;2023-01-10T06:06:02;19.90;;;4.00;;
18520;SDS011;9390;51.244;6.982;2023-01-10T06:08:35;23.58;;;4.60;;
18520;SDS011;9390;51.244;6.982;2023-01-10T06:11:07;17.83;;;3.55;;
18520;SDS011;9390;51.244;6.982;2023-01-10T06:13:38;26.15;;;3.80;;
18520;SDS011;9390;51.244;6.982;2023-01-10T06:16:09;20.83;;;3.90;;
18520;SDS011;9390;51.244;6.982;2023-01-10T06:18:41;21.20;;;4.55;;
18520;SDS011;9390;51.244;6.982;2023-01-10T06:21:12;24.63;;;3.85;;
18520;SDS011;9390;51.244;6.982;2023-01-10T06:23:46;17.10;;;4.18;;
18520;SDS011;9390;51.244;6.982;2023-01-10T06:26:17;32.78;;;4.88;;
18520;SDS011;9390;51.244;6.982;2023-01-10T06:28:49;29.27;;;3.97;;
18520;SDS011;9390;51.244;6.982;2023-01-10T06:31:20;25.85;;;4.18;;
18520;SDS011;9390;51.244;6.982;2023-01-10T06:33:51;24.17;;;3.88;;
18520;SDS011;9390;51.244;6.982;2023-01-10T06:36:23;27.33;;;5.22;;
18520;SDS011;9390;51.244;6.982;2023-01-10T06:38:56;42.00;;;5.40;;
18520;SDS011;9390;51.244;6.982;2023-01-10T06:41:27;30.52;;;5.22;;
18520;SDS011;9390;51.244;6.982;2023-01-10T06:43:58;25.15;;;4.22;;
18520;SDS011;9390;51.244;6.982;2023-01-10T06:46:30;23.45;;;4.70;;
18520;SDS011;9390;51.244;6.982;2023-01-10T06:49:01;24.45;;;4.13;;
18520;SDS011;9390;51.244;6.982;2023-01-10T06:51:32;37.67;;;5.70;;
18520;SDS011;9390;51.244;6.982;2023-01-10T06:54:05;29.30;;;4.05;;
18520;SDS011;9390;51.244;6.982;2023-01-10T06:56:37;32.00;;;4.43;;
18520;SDS011;9390;51.244;6.982;2023-01-10T06:59:08;29.77;;;4.28;;
18520;SDS011;9390;51.244;6.982;2023-01-10T07:01:40;22.30;;;4.25;;
18520;SDS011;9390;51.244;6.982;2023-01-10T07:04:11;33.30;;;5.25;;
18520;SDS011;9390;51.244;6.982;2023-01-10T07:06:42;33.40;;;6.63;;
18520;SDS011;9390;51.244;6.982;2023-01-10T07:09:15;25.75;;;4.38;;
18520;SDS011;9390;51.244;6.982;2023-01-10T07:11:47;31.38;;;4.40;;
18520;SDS011;9390;51.244;6.982;2023-01-10T07:14:18;25.40;;;3.92;;
18520;SDS011;9390;51.244;6.982;2023-01-10T07:16:50;23.38;;;5.13;;
18520;SDS011;9390;51.244;6.982;2023-01-10T07:19:21;35.55;;;6.40;;
18520;SDS011;9390;51.244;6.982;2023-01-10T07:21:53;20.00;;;4.05;;
18520;SDS011;9390;51.244;6.982;2023-01-10T07:24:25;17.55;;;3.70;;
18520;SDS011;9390;51.244;6.982;2023-01-10T07:26:57;29.73;;;4.32;;
18520;SDS011;9390;51.244;6.982;2023-01-10T07:29:28;25.23;;;4.53;;
18520;SDS011;9390;51.244;6.982;2023-01-10T07:32:02;32.70;;;5.43;;
18520;SDS011;9390;51.244;6.982;2023-01-10T07:34:35;24.65;;;4.40;;
18520;SDS011;9390;51.244;6.982;2023-01-10T07:37:06;22.50;;;4.68;;
18520;SDS011;9390;51.244;6.982;2023-01-10T07:39:39;25.75;;;4.25;;
18520;SDS011;9390;51.244;6.982;2023-01-10T07:42:11;23.40;;;4.18;;
18520;SDS011;9390;51.244;6.982;2023-01-10T07:44:42;35.22;;;5.47;;
18520;SDS011;9390;51.244;6.982;2023-01-10T07:47:14;29.52;;;4.78;;
18520;SDS011;9390;51.244;6.982;2023-01-10T07:49:45;26.77;;;6.07;;
18520;SDS011;9390;51.244;6.982;2023-01-10T07:52:16;41.20;;;7.90;;
18520;SDS011;9390;51.244;6.982;2023-01-10T07:54:49;30.35;;;5.10;;
18520;SDS011;9390;51.244;6.982;2023-01-10T07:57:21;24.33;;;4.07;;
18520;SDS011;9390;51.244;6.982;2023-01-10T07:59:52;38.38;;;6.20;;
18520;SDS011;9390;51.244;6.982;2023-01-10T08:02:23;32.80;;;4.40;;
18520;SDS011;9390;51.244;6.982;2023-01-10T08:04:55;26.33;;;4.20;;
18520;SDS011;9390;51.244;6.982;2023-01-10T08:07:27;24.88;;;4.78;;
18520;SDS011;9390;51.244;6.982;2023-01-10T08:10:00;41.97;;;5.67;;
18520;SDS011;9390;51.244;6.982;2023-01-10T08:12:31;24.02;;;4.70;;
18520;SDS011;9390;51.244;6.982;2023-01-10T08:15:03;25.30;;;4.43;;
18520;SDS011;9390;51.244;6.982;2023-01-10T08:17:35;22.10;;;5.13;;
18520;SDS011;9390;51.244;6.982;2023-01-10T08:20:07;31.27;;;4.80;;
18520;SDS011;9390;51.244;6.982;2023-01-10T08:22:39;28.00;;;4.32;;
18520;SDS011;9390;51.244;6.982;2023-01-10T08:25:12;36.10;;;4.90;;
18520;SDS011;9390;51.244;6.982;2023-01-10T08:27:43;33.60;;;4.35;;
18520;SDS011;9390;51.244;6.982;2023-01-10T08:30:14;22.42;;;4.50;;
18520;SDS011;9390;51.244;6.982;2023-01-10T08:32:46;21.00;;;3.78;;
18520;SDS011;9390;51.244;6.982;2023-01-10T08:35:17;24.45;;;4.40;;
18520;SDS011;9390;51.244;6.982;2023-01-10T08:37:49;30.48;;;4.93;;
18520;SDS011;9390;51.244;6.982;2023-01-10T08:40:22;33.20;;;5.30;;
18520;SDS011;9390;51.244;6.982;2023-01-10T08:42:57;33.55;;;4.93;;
18520;SDS011;9390;51.244;6.982;2023-01-10T08:45:29;22.85;;;4.53;;
18520;SDS011;9390;51.244;6.982;2023-01-10T08:48:00;20.25;;;4.45;;
18520;SDS011;9390;51.244;6.982;2023-01-10T08:50:32;45.03;;;5.43;;
18520;SDS011;9390;51.244;6.982;2023-01-10T08:53:03;35.15;;;4.20;;
18520;SDS011;9390;51.244;6.982;2023-01-10T08:55:36;23.48;;;4.35;;
18520;SDS011;9390;51.244;6.982;2023-01-10T08:58:08;32.10;;;4.10;;
18520;SDS011;9390;51.244;6.982;2023-01-10T09:00:40;20.90;;;4.10;;
18520;SDS011;9390;51.244;6.982;2023-01-10T09:03:11;27.10;;;4.47;;
18520;SDS011;9390;51.244;6.982;2023-01-10T09:05:43;37.28;;;5.25;;
18520;SDS011;9390;51.244;6.982;2023-01-10T09:08:14;28.73;;;4.93;;
18520;SDS011;9390;51.244;6.982;2023-01-10T09:10:47;38.83;;;4.78;;
18520;SDS011;9390;51.244;6.982;2023-01-10T09:13:18;31.95;;;5.32;;
18520;SDS011;9390;51.244;6.982;2023-01-10T09:15:50;31.00;;;5.78;;
18520;SDS011;9390;51.244;6.982;2023-01-10T09:18:22;30.83;;;4.55;;
18520;SDS011;9390;51.244;6.982;2023-01-10T09:20:53;36.58;;;6.15;;
18520;SDS011;9390;51.244;6.982;2023-01-10T09:23:25;28.85;;;4.35;;
18520;SDS011;9390;51.244;6.982;2023-01-10T09:25:58;27.60;;;4.97;;
18520;SDS011;9390;51.244;6.982;2023-01-10T09:28:30;32.17;;;4.60;;
18520;SDS011;9390;51.244;6.982;2023-01-10T09:31:02;23.58;;;3.88;;
18520;SDS011;9390;51.244;6.982;2023-01-10T09:33:34;27.57;;;4.33;;
18520;SDS011;9390;51.244;6.982;2023-01-10T09:36:06;32.17;;;4.80;;
18520;SDS011;9390;51.244;6.982;2023-01-10T09:38:38;18.02;;;3.75;;
18520;SDS011;9390;51.244;6.982;2023-01-10T09:41:15;25.35;;;4.15;;
18520;SDS011;9390;51.244;6.982;2023-01-10T09:43:53;26.13;;;5.40;;
18520;SDS011;9390;51.244;6.982;2023-01-10T09:46:35;32.15;;;5.18;;
18520;SDS011;9390;51.244;6.982;2023-01-10T09:49:13;23.42;;;4.00;;
18520;SDS011;9390;51.244;6.982;2023-01-10T09:51:48;33.85;;;4.70;;
18520;SDS011;9390;51.244;6.982;2023-01-10T09:54:22;23.70;;;4.25;;
18520;SDS011;9390;51.244;6.982;2023-01-10T09:56:57;31.40;;;5.03;;
18520;SDS011;9390;51.244;6.982;2023-01-10T09:59:31;19.35;;;3.90;;
18520;SDS011;9390;51.244;6.982;2023-01-10T10:02:13;22.08;;;3.97;;
18520;SDS011;9390;51.244;6.982;2023-01-10T10:04:52;21.90;;;4.17;;
18520;SDS011;9390;51.244;6.982;2023-01-10T10:07:32;20.77;;;4.03;;
18520;SDS011;9390;51.244;6.982;2023-01-10T10:10:04;19.50;;;4.95;;
18520;SDS011;9390;51.244;6.982;2023-01-10T10:12:39;23.90;;;3.78;;
18520;SDS011;9390;51.244;6.982;2023-01-10T10:15:17;23.77;;;3.88;;
18520;SDS011;9390;51.244;6.982;2023-01-10T10:17:52;26.90;;;3.88;;
18520;SDS011;9390;51.244;6.982;2023-01-10T10:20:30;28.63;;;4.25;;
18520;SDS011;9390;51.244;6.982;2023-01-10T10:23:11;23.20;;;4.20;;
18520;SDS011;9390;51.244;6.982;2023-01-10T10:25:53;26.95;;;5.00;;
18520;SDS011;9390;51.244;6.982;2023-01-10T10:28:41;27.40;;;4.10;;
18520;SDS011;9390;51.244;6.982;2023-01-10T10:31:20;32.42;;;5.13;;
18520;SDS011;9390;51.244;6.982;2023-01-10T10:33:59;24.23;;;4.32;;
18520;SDS011;9390;51.244;6.982;2023-01-10T10:36:36;26.27;;;3.67;;
18520;SDS011;9390;51.244;6.982;2023-01-10T10:39:11;27.30;;;5.13;;
18520;SDS011;9390;51.244;6.982;2023-01-10T10:41:45;22.77;;;4.60;;
18520;SDS011;9390;51.244;6.982;2023-01-10T10:44:26;21.00;;;4.28;;
18520;SDS011;9390;51.244;6.982;2023-01-10T10:47:05;28.38;;;4.60;;
18520;SDS011;9390;51.244;6.982;2023-01-10T10:49:44;27.00;;;4.57;;
18520;SDS011;9390;51.244;6.982;2023-01-10T10:52:20;24.88;;;3.90;;
18520;SDS011;9390;51.244;6.982;2023-01-10T10:54:54;27.23;;;3.92;;
18520;SDS011;9390;51.244;6.982;2023-01-10T10:57:27;16.52;;;3.95;;
18520;SDS011;9390;51.244;6.982;2023-01-10T11:00:01;30.15;;;4.80;;
18520;SDS011;9390;51.244;6.982;2023-01-10T11:02:38;25.10;;;5.85;;
18520;SDS011;9390;51.244;6.982;2023-01-10T11:05:14;26.15;;;4.13;;
18520;SDS011;9390;51.244;6.982;2023-01-10T11:07:46;23.75;;;4.03;;
18520;SDS011;9390;51.244;6.982;2023-01-10T11:10:20;28.23;;;4.13;;
18520;SDS011;9390;51.244;6.982;2023-01-10T11:13:12;21.33;;;3.72;;
18520;SDS011;9390;51.244;6.982;2023-01-10T11:15:49;20.65;;;3.83;;
18520;SDS011;9390;51.244;6.982;2023-01-10T11:20:53;25.90;;;4.43;;
18520;SDS011;9390;51.244;6.982;2023-01-10T11:23:32;25.15;;;4.10;;
18520;SDS011;9390;51.244;6.982;2023-01-10T11:26:21;25.58;;;4.20;;
18520;SDS011;9390;51.244;6.982;2023-01-10T11:29:02;29.70;;;4.45;;
18520;SDS011;9390;51.244;6.982;2023-01-10T11:31:40;20.02;;;3.80;;
18520;SDS011;9390;51.244;6.982;2023-01-10T11:34:18;26.20;;;3.88;;
18520;SDS011;9390;51.244;6.982;2023-01-10T11:36:52;32.67;;;4.60;;
18520;SDS011;9390;51.244;6.982;2023-01-10T11:39:28;24.98;;;4.60;;
18520;SDS011;9390;51.244;6.982;2023-01-10T11:42:19;26.02;;;4.40;;
18520;SDS011;9390;51.244;6.982;2023-01-10T11:45:12;22.17;;;3.95;;
18520;SDS011;9390;51.244;6.982;2023-01-10T11:47:53;19.63;;;3.80;;
18520;SDS011;9390;51.244;6.982;2023-01-10T11:50:27;27.83;;;3.88;;
18520;SDS011;9390;51.244;6.982;2023-01-10T11:52:59;19.80;;;3.20;;
18520;SDS011;9390;51.244;6.982;2023-01-10T11:55:31;21.58;;;3.88;;
18520;SDS011;9390;51.244;6.982;2023-01-10T11:58:04;21.23;;;3.80;;
18520;SDS011;9390;51.244;6.982;2023-01-10T12:00:39;23.25;;;4.15;;
18520;SDS011;9390;51.244;6.982;2023-01-10T12:03:15;18.58;;;3.60;;
18520;SDS011;9390;51.244;6.982;2023-01-10T12:05:49;25.60;;;3.90;;
18520;SDS011;9390;51.244;6.982;2023-01-10T12:08:26;24.85;;;3.70;;
18520;SDS011;9390;51.244;6.982;2023-01-10T12:11:03;23.15;;;4.05;;
18520;SDS011;9390;51.244;6.982;2023-01-10T12:13:44;21.67;;;4.03;;
18520;SDS011;9390;51.244;6.982;2023-01-10T12:16:17;27.77;;;3.53;;
18520;SDS011;9390;51.244;6.982;2023-01-10T12:18:52;22.63;;;3.28;;
18520;SDS011;9390;51.244;6.982;2023-01-10T12:21:27;18.27;;;3.30;;
18520;SDS011;9390;51.244;6.982;2023-01-10T12:24:02;26.35;;;4.05;;
18520;SDS011;9390;51.244;6.982;2023-01-10T12:26:35;26.52;;;7.15;;
18520;SDS011;9390;51.244;6.982;2023-01-10T12:29:07;21.60;;;3.47;;
18520;SDS011;9390;51.244;6.982;2023-01-10T12:31:43;25.52;;;3.65;;
18520;SDS011;9390;51.244;6.982;2023-01-10T12:34:16;22.95;;;3.85;;
18520;SDS011;9390;51.244;6.982;2023-01-10T12:36:53;21.23;;;3.45;;
18520;SDS011;9390;51.244;6.982;2023-01-10T12:39:29;22.70;;;3.90;;
18520;SDS011;9390;51.244;6.982;2023-01-10T12:42:09;17.15;;;3.45;;
18520;SDS011;9390;51.244;6.982;2023-01-10T12:45:04;14.82;;;3.05;;
18520;SDS011;9390;51.244;6.982;2023-01-10T12:47:40;21.52;;;4.55;;
18520;SDS011;9390;51.244;6.982;2023-01-10T12:50:20;12.65;;;2.67;;
18520;SDS011;9390;51.244;6.982;2023-01-10T12:52:56;16.10;;;2.90;;
18520;SDS011;9390;51.244;6.982;2023-01-10T12:55:33;22.65;;;3.35;;
18520;SDS011;9390;51.244;6.982;2023-01-10T12:58:05;20.55;;;3.00;;
18520;SDS011;9390;51.244;6.982;2023-01-10T13:00:41;20.38;;;3.10;;
18520;SDS011;9390;51.244;6.982;2023-01-10T13:03:16;16.88;;;2.88;;
18520;SDS011;9390;51.244;6.982;2023-01-10T13:05:51;23.02;;;3.60;;
18520;SDS011;9390;51.244;6.982;2023-01-10T13:08:24;16.25;;;3.38;;
18520;SDS011;9390;51.244;6.982;2023-01-10T13:13:30;19.00;;;3.00;;
18520;SDS011;9390;51.244;6.982;2023-01-10T13:16:17;13.23;;;2.47;;
18520;SDS011;9390;51.244;6.982;2023-01-10T13:18:59;13.15;;;2.95;;
18520;SDS011;9390;51.244;6.982;2023-01-10T13:21:33;13.18;;;2.95;;
18520;SDS011;9390;51.244;6.982;2023-01-10T13:26:50;25.15;;;3.38;;
18520;SDS011;9390;51.244;6.982;2023-01-10T13:29:23;16.05;;;2.92;;
18520;SDS011;9390;51.244;6.982;2023-01-10T13:34:31;16.42;;;2.85;;
18520;SDS011;9390;51.244;6.982;2023-01-10T13:37:09;25.48;;;3.70;;
18520;SDS011;9390;51.244;6.982;2023-01-10T13:39:41;19.45;;;3.40;;
18520;SDS011;9390;51.244;6.982;2023-01-10T13:47:58;24.13;;;3.17;;
18520;SDS011;9390;51.244;6.982;2023-01-10T13:50:44;21.70;;;3.78;;
18520;SDS011;9390;51.244;6.982;2023-01-10T13:56:39;21.15;;;4.03;;
18520;SDS011;9390;51.244;6.982;2023-01-10T13:59:12;12.82;;;3.28;;
18520;SDS011;9390;51.244;6.982;2023-01-10T14:02:08;14.73;;;3.17;;
18520;SDS011;9390;51.244;6.982;2023-01-10T14:04:59;12.57;;;2.50;;
18520;SDS011;9390;51.244;6.982;2023-01-10T14:07:32;13.77;;;2.70;;
18520;SDS011;9390;51.244;6.982;2023-01-10T14:10:06;17.80;;;3.40;;
18520;SDS011;9390;51.244;6.982;2023-01-10T14:12:47;16.48;;;3.15;;
18520;SDS011;9390;51.244;6.982;2023-01-10T14:15:22;16.13;;;2.53;;
18520;SDS011;9390;51.244;6.982;2023-01-10T14:17:57;16.35;;;2.70;;
18520;SDS011;9390;51.244;6.982;2023-01-10T14:23:16;22.30;;;3.03;;
18520;SDS011;9390;51.244;6.982;2023-01-10T14:25:51;13.90;;;2.78;;
18520;SDS011;9390;51.244;6.982;2023-01-10T14:28:25;15.23;;;3.00;;
18520;SDS011;9390;51.244;6.982;2023-01-10T14:30:59;11.40;;;2.63;;
18520;SDS011;9390;51.244;6.982;2023-01-10T14:33:34;19.38;;;2.83;;
18520;SDS011;9390;51.244;6.982;2023-01-10T14:36:07;18.30;;;3.17;;
18520;SDS011;9390;51.244;6.982;2023-01-10T14:38:39;15.05;;;3.10;;
18520;SDS011;9390;51.244;6.982;2023-01-10T14:41:14;21.42;;;3.22;;
18520;SDS011;9390;51.244;6.982;2023-01-10T14:43:52;14.38;;;2.60;;
18520;SDS011;9390;51.244;6.982;2023-01-10T14:46:25;15.10;;;3.00;;
18520;SDS011;9390;51.244;6.982;2023-01-10T14:49:00;23.45;;;2.90;;
18520;SDS011;9390;51.244;6.982;2023-01-10T14:51:32;20.60;;;3.45;;
18520;SDS011;9390;51.244;6.982;2023-01-10T14:54:10;15.38;;;3.90;;
18520;SDS011;9390;51.244;6.982;2023-01-10T14:56:43;11.98;;;3.10;;
18520;SDS011;9390;51.244;6.982;2023-01-10T14:59:19;17.17;;;3.72;;
18520;SDS011;9390;51.244;6.982;2023-01-10T15:01:54;15.27;;;3.10;;
18520;SDS011;9390;51.244;6.982;2023-01-10T15:04:27;16.70;;;2.45;;
18520;SDS011;9390;51.244;6.982;2023-01-10T15:07:00;22.67;;;2.80;;
18520;SDS011;9390;51.244;6.982;2023-01-10T15:09:33;13.45;;;2.58;;
18520;SDS011;9390;51.244;6.982;2023-01-10T15:12:05;17.58;;;3.28;;
18520;SDS011;9390;51.244;6.982;2023-01-10T15:14:39;19.92;;;3.88;;
18520;SDS011;9390;51.244;6.982;2023-01-10T15:17:10;13.23;;;2.63;;
18520;SDS011;9390;51.244;6.982;2023-01-10T15:19:46;15.73;;;2.72;;
18520;SDS011;9390;51.244;6.982;2023-01-10T15:22:25;16.08;;;3.70;;
18520;SDS011;9390;51.244;6.982;2023-01-10T15:24:59;23.42;;;3.10;;
18520;SDS011;9390;51.244;6.982;2023-01-10T15:27:31;19.23;;;3.00;;
18520;SDS011;9390;51.244;6.982;2023-01-10T15:30:07;19.35;;;3.33;;
18520;SDS011;9390;51.244;6.982;2023-01-10T15:32:40;15.55;;;3.35;;
18520;SDS011;9390;51.244;6.982;2023-01-10T15:35:14;15.40;;;4.63;;
18520;SDS011;9390;51.244;6.982;2023-01-10T15:37:47;11.35;;;2.35;;
18520;SDS011;9390;51.244;6.982;2023-01-10T15:40:21;14.45;;;2.80;;
18520;SDS011;9390;51.244;6.982;2023-01-10T15:45:49;16.13;;;3.97;;
18520;SDS011;9390;51.244;6.982;2023-01-10T15:48:27;14.18;;;2.58;;
18520;SDS011;9390;51.244;6.982;2023-01-10T15:51:01;15.95;;;3.03;;
18520;SDS011;9390;51.244;6.982;2023-01-10T15:53:54;16.70;;;3.05;;
18520;SDS011;9390;51.244;6.982;2023-01-10T15:56:33;24.15;;;3.90;;
18520;SDS011;9390;51.244;6.982;2023-01-10T15:59:18;19.88;;;3.50;;
18520;SDS011;9390;51.244;6.982;2023-01-10T16:01:54;19.10;;;3.38;;
18520;SDS011;9390;51.244;6.982;2023-01-10T16:04:27;10.63;;;3.33;;
18520;SDS011;9390;51.244;6.982;2023-01-10T16:07:03;18.83;;;3.40;;
18520;SDS011;9390;51.244;6.982;2023-01-10T16:09:36;19.95;;;3.83;;